Terminal Aerodrome Forecast
Issued by NWS Louisville, KY

Home | Current Version | Previous Version | Text Only | Print | Product List | Glossary Off
Versions: 1 2 3 4 5 6 7 8 9 10 11 12 13 14 15 16 17 18 19

000
FTUS43 KLMK 210500
TAFLEX
TAF
KLEX 210520Z 2106/2206 20005KT P6SM SCT120
     FM210900 19004KT 4SM BR BKN250
     FM211300 24008KT P6SM SCT040 BKN250=

USA.gov is the U.S. government's official web portal to all federal, state and local government web resources and services.